Leadville, CO (80429)

1:53 PM MDT on August 04, 2015 (GMT -0600)
Lake County | | Change Station
CLOSE
Current Station
Airport
Location: Leadville,
Elevation: 9928 ft
Nearby Weather Stations

Elev 9928 ft 39.23 °N, 106.32 °W | Updated 1 hour ago

Partly Cloudy
Partly Cloudy
63 °F
Feels Like 63 °F
N
15
Wind Variable Wind from WNW
Gusts 22 mph

Today
High -- | Low -- °F
--% Chance of Precip.
Yesterday
High -- | Low -- °F
Precip. -- in
6:07 AM 8:14 PM
Waning Gibbous, 75% visible
Pressure 29.95 in
Visibility 10.0 miles
Clouds Mostly Cloudy 7000 ft
Dew Point 31 °F
Humidity 30%
Rainfall 0.00 in
Snow Depth Not available.
UV 7 out of 12
Pollen 7.60 out of 12
Air Quality Not available.
Flu Activity Not available.
METAR KLXV 041853Z AUTO 29013G19KT 250V320 10SM BKN070 17/M01 A3045 RMK AO2 PK WND 28026/1805 SLP141 T01721006

More Conditions Fewer Conditions

Pressure 29.95 in
Visibility 10.0 miles
Clouds Mostly Cloudy 7000 ft
Dew Point 31 °F
Humidity 30%
Rainfall 0.00 in
Snow Depth Not available.
UV 7 out of 12
Pollen 7.60 out of 12
Air Quality Not available.
Flu Activity Not available.
METAR KLXV 041853Z AUTO 29013G19KT 250V320 10SM BKN070 17/M01 A3045 RMK AO2 PK WND 28026/1805 SLP141 T01721006

More Conditions Fewer Conditions

10-Day Weather Forecast

×

Almanac

Astronomy

Aug. 04, 2015 Rise Set
Actual Time
Civil Twilight
Nautical Twilight
Astronomical Twilight
Moon
Length of Visible Light
Length of Day
Tomorrow will be .
, % of the Moon is Illuminated

Today's Extremes

State Highs State Lows

Community

WunderPhotos

Upload Photos

1,843,956 photos uploaded!

WunderBlogs® & News

Nearby

Air Quality

  Air Quality AQ Index Pollutant
Not available.

Snow Depth

Station Depth Elevation

Earthquake Activity

City Distance Mag. Time & Date
Minimum magnitude displayed is 2.5.

Coastal Water Temperatures

Place Temperature

Stations

Nearby Weather Stations

Station Location Temp. Windchill Dew Point Humidity Wind Precip. Elev Updated Type